createdAt,value
2022-08-14T00:01:11.594Z,6.85
2022-08-14T00:03:41.553Z,6.93
2022-08-14T00:06:25.862Z,6.60
2022-08-14T00:08:59.308Z,6.20
2022-08-14T00:11:31.203Z,6.75
2022-08-14T00:14:01.481Z,6.80
2022-08-14T00:16:40.901Z,6.57
2022-08-14T00:19:19.182Z,6.47
2022-08-14T00:21:50.252Z,6.30
2022-08-14T00:24:22.950Z,6.40
2022-08-14T00:26:56.247Z,6.85
2022-08-14T00:29:25.562Z,6.70
2022-08-14T00:31:55.283Z,6.88
2022-08-14T00:34:35.410Z,6.87
2022-08-14T00:37:05.473Z,6.63
2022-08-14T00:39:32.435Z,6.85
2022-08-14T00:41:59.153Z,6.57
2022-08-14T00:44:32.465Z,6.65
2022-08-14T00:47:10.579Z,6.83
2022-08-14T00:49:37.934Z,6.90
2022-08-14T00:52:11.065Z,7.25
2022-08-14T00:54:45.453Z,6.90
2022-08-14T00:57:12.295Z,7.35
2022-08-14T00:59:39.484Z,7.63
2022-08-14T01:02:06.702Z,7.63
2022-08-14T01:04:51.214Z,7.53
2022-08-14T01:07:22.786Z,7.75
2022-08-14T01:10:02.432Z,7.45
2022-08-14T01:12:30.527Z,7.20
2022-08-14T01:14:59.065Z,7.28
2022-08-14T01:17:49.980Z,7.78
2022-08-14T01:20:35.911Z,7.38
2022-08-14T01:23:16.283Z,7.20
2022-08-14T01:25:51.386Z,7.77
2022-08-14T01:28:34.481Z,7.22
2022-08-14T01:31:14.145Z,7.30
2022-08-14T01:35:15.767Z,7.68
2022-08-14T01:36:36.813Z,7.05
2022-08-14T01:39:12.794Z,7.77
2022-08-14T01:41:52.352Z,7.35
2022-08-14T01:44:32.438Z,8.07
2022-08-14T01:47:05.885Z,7.07
2022-08-14T01:49:35.463Z,7.53
2022-08-14T01:52:13.391Z,7.63
2022-08-14T01:54:58.042Z,7.38
2022-08-14T01:57:25.264Z,7.90
2022-08-14T02:00:00.613Z,7.70
2022-08-14T02:02:29.837Z,7.57
2022-08-14T02:05:03.718Z,7.60
2022-08-14T02:07:44.706Z,8.43
2022-08-14T02:10:18.971Z,8.07
2022-08-14T02:12:56.951Z,8.57
2022-08-14T02:15:25.011Z,8.38
2022-08-14T02:17:51.718Z,7.83
2022-08-14T02:20:23.473Z,8.43
2022-08-14T02:22:54.647Z,8.48
2022-08-14T02:25:22.485Z,8.00
2022-08-14T02:28:24.093Z,7.80
2022-08-14T02:30:38.561Z,7.90
2022-08-14T02:33:07.187Z,8.50
2022-08-14T02:35:33.634Z,8.38
2022-08-14T02:38:07.320Z,8.43
2022-08-14T02:40:38.752Z,8.73
2022-08-14T02:43:07.905Z,8.77
2022-08-14T02:45:38.426Z,8.82
2022-08-14T02:49:03.568Z,8.85
2022-08-14T02:51:00.554Z,8.27
2022-08-14T02:53:27.202Z,8.40
2022-08-14T02:55:56.374Z,8.70
2022-08-14T02:58:31.098Z,8.63
2022-08-14T03:00:59.176Z,8.80
2022-08-14T03:03:26.275Z,8.95
2022-08-14T03:05:54.399Z,8.60
2022-08-14T03:08:22.180Z,8.50
2022-08-14T03:10:50.278Z,9.05
2022-08-14T03:13:21.621Z,8.68
2022-08-14T03:15:55.833Z,8.40
2022-08-14T03:18:32.057Z,8.93
2022-08-14T03:21:07.837Z,9.27
2022-08-14T03:23:38.235Z,9.20
2022-08-14T03:26:13.033Z,8.63
2022-08-14T03:28:48.667Z,8.85
2022-08-14T03:31:16.032Z,9.63
2022-08-14T03:33:43.261Z,9.20
2022-08-14T03:37:51.145Z,8.90
2022-08-14T03:39:13.948Z,9.02
2022-08-14T03:41:50.715Z,8.98
2022-08-14T03:45:25.362Z,8.82
2022-08-14T03:47:04.470Z,9.33
2022-08-14T03:49:31.983Z,9.25
2022-08-14T03:52:07.722Z,9.13
2022-08-14T03:54:46.204Z,9.25
2022-08-14T03:57:18.926Z,9.40
2022-08-14T03:59:45.591Z,9.43
2022-08-14T04:02:32.802Z,9.80
2022-08-14T04:05:12.314Z,10.43
2022-08-14T04:07:41.497Z,9.57
2022-08-14T04:10:17.516Z,10.20
2022-08-14T04:12:52.913Z,9.67
2022-08-14T04:15:21.238Z,9.77
2022-08-14T04:17:50.222Z,9.57
2022-08-14T04:20:17.156Z,10.13
2022-08-14T04:22:53.219Z,9.27
2022-08-14T04:25:22.271Z,9.40
2022-08-14T04:28:02.465Z,9.70
2022-08-14T04:30:32.830Z,9.80
2022-08-14T04:33:06.415Z,10.10
2022-08-14T04:35:55.419Z,9.75
2022-08-14T04:38:42.014Z,9.97
2022-08-14T04:41:30.339Z,10.43
2022-08-14T04:43:58.000Z,10.32
2022-08-14T04:46:55.335Z,10.52
2022-08-14T04:49:15.022Z,9.40
2022-08-14T04:51:55.393Z,9.97
2022-08-14T04:54:26.720Z,9.60
2022-08-14T04:56:54.973Z,9.68
2022-08-14T04:59:23.298Z,9.35
2022-08-14T05:01:55.198Z,9.32
2022-08-14T05:04:24.914Z,8.77
2022-08-14T05:06:55.008Z,8.90
2022-08-14T05:09:29.341Z,10.05
2022-08-14T05:12:23.884Z,9.82
2022-08-14T05:14:53.476Z,9.73
2022-08-14T05:17:28.780Z,10.40
2022-08-14T05:21:57.918Z,9.68
2022-08-14T05:22:59.321Z,10.60
2022-08-14T05:25:25.867Z,9.98
2022-08-14T05:28:00.439Z,9.98
2022-08-14T05:30:27.052Z,9.30
2022-08-14T05:32:53.919Z,9.15
2022-08-14T05:35:20.617Z,34.00
2022-08-14T05:37:50.060Z,13.02
2022-08-14T05:40:16.909Z,9.57
2022-08-14T05:42:46.579Z,8.17
2022-08-14T05:45:20.021Z,7.72
2022-08-14T05:47:46.573Z,7.90
2022-08-14T05:50:19.069Z,7.95
2022-08-14T05:52:50.894Z,7.25
2022-08-14T05:55:22.135Z,7.80
2022-08-14T05:57:59.760Z,7.97
2022-08-14T06:00:38.706Z,7.70
2022-08-14T06:03:09.613Z,7.38
2022-08-14T06:05:38.609Z,7.72
2022-08-14T06:08:08.490Z,7.10
2022-08-14T06:10:35.286Z,7.90
2022-08-14T06:13:03.269Z,7.18
2022-08-14T06:15:30.752Z,7.53
2022-08-14T06:17:59.798Z,7.65
2022-08-14T06:20:27.939Z,7.53
2022-08-14T06:22:55.169Z,7.35
2022-08-14T06:25:23.807Z,7.47
2022-08-14T06:27:51.880Z,7.20
2022-08-14T06:30:30.458Z,7.40
2022-08-14T06:33:10.264Z,7.10
2022-08-14T06:35:42.526Z,6.78
2022-08-14T06:38:18.103Z,7.00
2022-08-14T06:40:48.899Z,7.53
2022-08-14T06:43:19.204Z,7.20
2022-08-14T06:45:53.954Z,7.30
2022-08-14T06:48:24.897Z,6.80
2022-08-14T06:50:55.377Z,7.22
2022-08-14T06:53:28.031Z,7.13
2022-08-14T06:56:01.842Z,7.07
2022-08-14T06:58:33.780Z,6.60
2022-08-14T07:01:27.554Z,6.75
2022-08-14T07:04:22.744Z,6.82
2022-08-14T07:06:50.655Z,6.75
2022-08-14T07:09:22.561Z,7.30
2022-08-14T07:11:51.861Z,6.80
2022-08-14T07:14:18.428Z,6.70
2022-08-14T07:16:45.008Z,7.40
2022-08-14T07:19:11.953Z,10.38
2022-08-14T07:21:39.694Z,7.30
2022-08-14T07:24:09.779Z,6.90
2022-08-14T07:26:48.133Z,6.78
2022-08-14T07:29:14.686Z,6.97
2022-08-14T07:31:43.976Z,7.10
2022-08-14T07:34:11.464Z,7.10
2022-08-14T07:36:38.110Z,6.87
2022-08-14T07:39:27.400Z,7.82
2022-08-14T07:41:57.265Z,6.88
2022-08-14T07:44:32.724Z,9.82
2022-08-14T07:47:03.722Z,7.15
2022-08-14T07:49:32.434Z,6.50
2022-08-14T07:51:59.919Z,7.18
2022-08-14T07:54:29.863Z,6.93
2022-08-14T07:57:06.268Z,6.82
2022-08-14T07:59:41.308Z,7.40
2022-08-14T08:02:18.979Z,7.30
2022-08-14T08:04:59.140Z,7.05
2022-08-14T08:07:30.949Z,6.90
2022-08-14T08:09:59.678Z,6.32
2022-08-14T08:12:30.915Z,6.95
2022-08-14T08:15:03.265Z,6.90
2022-08-14T08:17:38.939Z,6.80
2022-08-14T08:20:15.457Z,6.30
2022-08-14T08:22:48.112Z,6.28
2022-08-14T08:25:17.991Z,6.50
2022-08-14T08:28:08.919Z,7.53
2022-08-14T08:30:51.281Z,7.05
2022-08-14T08:33:19.462Z,6.70
2022-08-14T08:35:50.891Z,6.30
2022-08-14T08:39:17.145Z,6.13
2022-08-14T08:41:12.264Z,6.47
2022-08-14T08:43:39.683Z,6.38
2022-08-14T08:46:21.242Z,6.25
2022-08-14T08:51:42.808Z,6.32
2022-08-14T08:54:18.563Z,6.53
2022-08-14T08:56:49.962Z,6.45
2022-08-14T08:59:30.709Z,6.18
2022-08-14T09:02:06.540Z,6.30
2022-08-14T09:04:45.209Z,6.03
2022-08-14T09:07:20.072Z,6.17
2022-08-14T09:09:59.100Z,6.20
2022-08-14T09:12:32.440Z,6.00
2022-08-14T09:15:11.366Z,6.22
2022-08-14T09:17:42.931Z,6.18
2022-08-14T09:20:12.471Z,6.00
2022-08-14T09:22:48.291Z,9.30
2022-08-14T09:25:16.842Z,6.40
2022-08-14T09:27:43.447Z,6.18
2022-08-14T09:30:30.973Z,6.07
2022-08-14T09:33:11.178Z,6.10
2022-08-14T09:36:00.213Z,5.95
2022-08-14T09:38:46.201Z,6.00
2022-08-14T09:42:21.163Z,5.63
2022-08-14T09:44:52.437Z,6.05
2022-08-14T09:47:19.239Z,6.17
2022-08-14T09:49:47.149Z,6.53
2022-08-14T09:52:33.369Z,6.53
2022-08-14T09:55:01.208Z,6.50
2022-08-14T09:57:31.926Z,6.78
2022-08-14T10:00:09.856Z,5.93
2022-08-14T10:03:05.600Z,6.25
2022-08-14T10:05:34.974Z,6.00
2022-08-14T10:08:17.650Z,6.25
2022-08-14T10:10:57.248Z,6.00
2022-08-14T10:13:42.976Z,5.87
2022-08-14T10:16:21.892Z,6.40
2022-08-14T10:19:09.439Z,6.32
2022-08-14T10:23:12.222Z,5.75
2022-08-14T10:24:37.346Z,6.00
2022-08-14T10:27:04.876Z,6.60
2022-08-14T10:29:40.765Z,5.90
2022-08-14T10:32:17.668Z,6.50
2022-08-14T10:34:46.283Z,5.80
2022-08-14T10:37:19.609Z,5.43
2022-08-14T10:40:10.519Z,5.70
2022-08-14T10:42:48.107Z,5.25
2022-08-14T10:45:30.739Z,5.30
2022-08-14T10:48:07.485Z,5.00
2022-08-14T10:50:38.861Z,4.72
2022-08-14T10:53:05.779Z,4.87
2022-08-14T10:55:45.261Z,5.68
2022-08-14T10:58:14.807Z,5.70
2022-08-14T11:00:56.551Z,5.15
2022-08-14T11:03:26.675Z,5.00
2022-08-14T11:06:15.213Z,5.87
2022-08-14T11:08:42.313Z,5.50
2022-08-14T11:11:12.656Z,5.68
2022-08-14T11:13:44.104Z,5.55
2022-08-14T11:16:11.190Z,5.22
2022-08-14T11:18:40.325Z,5.77
2022-08-14T11:21:08.228Z,4.82
2022-08-14T11:23:40.876Z,5.38
2022-08-14T11:26:10.159Z,4.80
2022-08-14T11:28:47.431Z,5.20
2022-08-14T11:31:18.067Z,5.27
2022-08-14T11:33:49.452Z,5.70
2022-08-14T11:36:18.738Z,5.78
2022-08-14T11:38:46.657Z,5.80
2022-08-14T11:41:17.316Z,6.10
2022-08-14T11:43:57.972Z,5.40
2022-08-14T11:46:30.330Z,5.45
2022-08-14T11:49:06.361Z,5.45
2022-08-14T11:51:36.204Z,5.25
2022-08-14T11:54:20.764Z,5.22
2022-08-14T11:57:01.667Z,5.37
2022-08-14T11:59:32.844Z,5.07
2022-08-14T12:03:00.661Z,5.57
2022-08-14T12:05:04.213Z,5.20
2022-08-14T12:07:31.088Z,4.70
2022-08-14T12:09:59.321Z,4.30
2022-08-14T12:12:47.269Z,4.40
2022-08-14T12:15:13.932Z,4.53
2022-08-14T12:17:50.419Z,4.65
2022-08-14T12:20:29.882Z,3.60
2022-08-14T12:23:05.258Z,4.07
2022-08-14T12:25:34.616Z,3.80
2022-08-14T12:28:10.250Z,4.00
2022-08-14T12:30:56.745Z,3.95
2022-08-14T12:33:33.700Z,3.67
2022-08-14T12:36:05.816Z,4.10
2022-08-14T12:38:44.943Z,3.80
2022-08-14T12:41:20.250Z,3.83
2022-08-14T12:43:51.706Z,3.60
2022-08-14T12:46:33.692Z,3.35
2022-08-14T12:49:08.807Z,3.70
2022-08-14T12:51:35.618Z,3.70
2022-08-14T12:54:19.353Z,4.25
2022-08-14T12:57:04.478Z,4.10
2022-08-14T12:59:33.251Z,3.97
2022-08-14T13:02:05.611Z,3.73
2022-08-14T13:04:36.183Z,3.05
2022-08-14T13:07:08.827Z,3.47
2022-08-14T13:09:37.727Z,3.08
2022-08-14T13:12:32.065Z,3.17
2022-08-14T13:14:52.758Z,3.23
2022-08-14T13:17:20.544Z,3.60
2022-08-14T13:19:48.508Z,3.65
2022-08-14T13:22:29.278Z,3.70
2022-08-14T13:25:05.217Z,3.58
2022-08-14T13:27:34.026Z,3.73
2022-08-14T13:30:10.433Z,3.50
2022-08-14T13:32:44.728Z,3.70
2022-08-14T13:35:17.511Z,3.80
2022-08-14T13:37:48.177Z,3.63
2022-08-14T13:40:21.178Z,3.60
2022-08-14T13:42:53.198Z,3.20
2022-08-14T13:45:24.112Z,2.75
2022-08-14T13:48:01.315Z,2.90
2022-08-14T13:50:27.801Z,3.10
2022-08-14T13:52:58.236Z,2.93
2022-08-14T13:55:30.498Z,3.03
2022-08-14T13:58:03.658Z,3.20
2022-08-14T14:00:51.677Z,3.40
2022-08-14T14:03:20.766Z,3.42
2022-08-14T14:05:54.603Z,3.57
2022-08-14T14:08:46.814Z,3.40
2022-08-14T14:11:10.650Z,3.85
2022-08-14T14:13:42.047Z,3.50
2022-08-14T14:16:15.291Z,3.50
2022-08-14T14:18:59.030Z,3.20
2022-08-14T14:21:28.582Z,3.47
2022-08-14T14:23:56.235Z,3.30
2022-08-14T14:26:24.626Z,3.60
2022-08-14T14:28:57.006Z,3.45
2022-08-14T14:31:29.664Z,3.53
2022-08-14T14:34:07.741Z,3.35
2022-08-14T14:36:52.625Z,3.60
2022-08-14T14:39:28.939Z,3.10
2022-08-14T14:42:00.129Z,3.80
2022-08-14T14:44:40.646Z,3.33
2022-08-14T14:47:12.430Z,3.33
2022-08-14T14:49:51.137Z,3.97
2022-08-14T14:52:26.917Z,3.50
2022-08-14T14:54:56.839Z,3.80
2022-08-14T14:57:27.830Z,3.90
2022-08-14T15:00:02.226Z,3.75
2022-08-14T15:02:38.066Z,4.10
2022-08-14T15:05:08.022Z,4.03
2022-08-14T15:07:35.762Z,4.00
2022-08-14T15:10:03.014Z,3.50
2022-08-14T15:12:54.926Z,3.70
2022-08-14T15:15:17.012Z,3.72
2022-08-14T15:17:44.067Z,3.50
2022-08-14T15:20:17.495Z,3.60
2022-08-14T15:22:57.360Z,3.57
2022-08-14T15:25:24.257Z,3.70
2022-08-14T15:27:54.281Z,3.63
2022-08-14T15:30:24.137Z,3.63
2022-08-14T15:32:58.558Z,3.80
2022-08-14T15:35:25.649Z,4.00
2022-08-14T15:37:55.826Z,3.60
2022-08-14T15:40:23.274Z,4.03
2022-08-14T15:42:49.816Z,4.13
2022-08-14T15:45:17.080Z,4.00
2022-08-14T15:47:43.608Z,3.93
2022-08-14T15:50:10.270Z,4.13
2022-08-14T15:52:37.554Z,4.18
2022-08-14T15:55:10.460Z,4.05
2022-08-14T15:58:02.128Z,4.57
2022-08-14T16:00:49.180Z,4.30
2022-08-14T16:03:18.032Z,4.70
2022-08-14T16:05:51.615Z,4.60
2022-08-14T16:08:29.094Z,4.15
2022-08-14T16:10:58.511Z,4.60
2022-08-14T16:13:41.566Z,4.60
2022-08-14T16:16:47.093Z,4.38
2022-08-14T16:19:10.670Z,4.97
2022-08-14T16:21:40.623Z,5.38
2022-08-14T16:24:08.185Z,4.63
2022-08-14T16:27:00.851Z,4.77
2022-08-14T16:29:29.072Z,4.40
2022-08-14T16:31:58.149Z,4.60
2022-08-14T16:34:45.610Z,4.90
2022-08-14T16:37:15.301Z,4.57
2022-08-14T16:39:42.908Z,4.70
2022-08-14T16:43:03.310Z,4.80
2022-08-14T16:44:58.137Z,4.78
2022-08-14T16:47:25.569Z,5.00
2022-08-14T16:50:08.510Z,4.80
2022-08-14T16:52:44.388Z,4.80
2022-08-14T16:55:14.025Z,4.97
2022-08-14T16:57:51.819Z,4.97
2022-08-14T17:00:32.866Z,5.88
2022-08-14T17:03:11.770Z,4.90
2022-08-14T17:05:43.047Z,5.20
2022-08-14T17:08:32.532Z,5.03
2022-08-14T17:11:10.910Z,5.07
2022-08-14T17:13:58.677Z,4.80
2022-08-14T17:16:33.013Z,5.18
2022-08-14T17:19:04.834Z,4.80
2022-08-14T17:21:38.482Z,5.85
2022-08-14T17:24:56.450Z,5.10
2022-08-14T17:27:00.065Z,5.00
2022-08-14T17:29:55.947Z,16.65
2022-08-14T17:32:29.373Z,5.20
2022-08-14T17:35:16.519Z,5.00
2022-08-14T17:37:46.079Z,4.90
2022-08-14T17:40:25.969Z,5.00
2022-08-14T17:43:02.158Z,5.18
2022-08-14T17:45:41.258Z,4.80
2022-08-14T17:49:14.473Z,10.65
2022-08-14T17:51:12.242Z,5.25
2022-08-14T17:53:53.492Z,5.28
2022-08-14T17:56:31.533Z,5.93
2022-08-14T17:59:05.313Z,6.20
2022-08-14T18:01:37.325Z,5.05
2022-08-14T18:04:24.387Z,5.22
2022-08-14T18:06:58.837Z,5.32
2022-08-14T18:09:56.865Z,5.90
2022-08-14T18:12:36.741Z,5.40
2022-08-14T18:15:18.675Z,5.20
2022-08-14T18:17:52.907Z,5.28
2022-08-14T18:21:40.012Z,5.35
2022-08-14T18:23:13.142Z,5.53
2022-08-14T18:25:48.468Z,5.20
2022-08-14T18:28:18.209Z,5.20
2022-08-14T18:31:22.718Z,5.43
2022-08-14T18:33:53.720Z,5.28
2022-08-14T18:36:48.388Z,6.88
2022-08-14T18:39:26.836Z,5.77
2022-08-14T18:42:22.998Z,5.70
2022-08-14T18:44:50.568Z,5.65
2022-08-14T18:47:19.943Z,6.00
2022-08-14T18:49:57.349Z,6.18
2022-08-14T18:52:33.382Z,5.80
2022-08-14T18:55:16.529Z,5.90
2022-08-14T18:58:07.714Z,5.50
2022-08-14T19:00:52.786Z,5.90
2022-08-14T19:03:22.740Z,6.13
2022-08-14T19:05:49.285Z,5.50
2022-08-14T19:08:22.141Z,6.18
2022-08-14T19:10:53.839Z,6.13
2022-08-14T19:13:48.454Z,6.00
2022-08-14T19:16:23.481Z,28.33
2022-08-14T19:19:00.170Z,18.40
2022-08-14T19:21:40.943Z,7.32
2022-08-14T19:24:27.474Z,5.90
2022-08-14T19:27:19.562Z,6.00
2022-08-14T19:29:51.282Z,5.90
2022-08-14T19:32:36.844Z,6.23
2022-08-14T19:35:49.829Z,6.13
2022-08-14T19:39:02.264Z,5.82
2022-08-14T19:41:34.390Z,6.00
2022-08-14T19:44:19.531Z,6.13
2022-08-14T19:47:00.438Z,5.80
2022-08-14T19:50:30.172Z,5.90
2022-08-14T19:52:24.093Z,5.95
2022-08-14T19:54:51.507Z,5.88
2022-08-14T19:57:29.259Z,5.95
2022-08-14T20:00:28.143Z,5.80
2022-08-14T20:03:10.793Z,5.70
2022-08-14T20:05:45.340Z,6.32
2022-08-14T20:11:00.236Z,6.30
2022-08-14T20:11:11.522Z,6.00
2022-08-14T20:13:46.572Z,6.17
2022-08-14T20:16:20.923Z,6.90
2022-08-14T20:18:58.004Z,6.43
2022-08-14T20:21:34.491Z,6.60
2022-08-14T20:24:30.888Z,6.10
2022-08-14T20:27:16.774Z,5.53
2022-08-14T20:29:44.844Z,6.07
2022-08-14T20:32:14.816Z,5.97
2022-08-14T20:34:51.331Z,6.28
2022-08-14T20:37:22.486Z,6.13
2022-08-14T20:39:54.724Z,5.80
2022-08-14T20:42:43.551Z,6.38
2022-08-14T20:45:21.474Z,6.57
2022-08-14T20:47:56.656Z,6.65
2022-08-14T20:50:28.353Z,7.20
2022-08-14T20:52:58.355Z,6.47
2022-08-14T20:55:28.968Z,6.47
2022-08-14T20:57:57.849Z,6.78
2022-08-14T21:00:52.388Z,6.13
2022-08-14T21:03:31.004Z,6.97
2022-08-14T21:06:00.363Z,7.03
2022-08-14T21:08:30.013Z,7.18
2022-08-14T21:10:56.662Z,6.65
2022-08-14T21:14:09.336Z,6.45
2022-08-14T21:16:34.279Z,6.40
2022-08-14T21:18:59.942Z,7.00
2022-08-14T21:21:41.643Z,6.80
2022-08-14T21:24:38.592Z,7.10
2022-08-14T21:27:02.108Z,6.72
2022-08-14T21:29:31.284Z,6.72
2022-08-14T21:31:57.686Z,6.47
2022-08-14T21:34:31.702Z,7.15
2022-08-14T21:37:09.155Z,6.95
2022-08-14T21:39:36.864Z,6.90
2022-08-14T21:42:05.751Z,6.72
2022-08-14T21:44:42.763Z,7.37
2022-08-14T21:47:12.215Z,6.63
2022-08-14T21:49:40.213Z,7.22
2022-08-14T21:52:49.129Z,7.07
2022-08-14T21:55:09.106Z,6.78
2022-08-14T21:58:42.657Z,6.60
2022-08-14T22:00:35.364Z,7.38
2022-08-14T22:03:10.733Z,7.15
2022-08-14T22:05:41.407Z,7.53
2022-08-14T22:08:12.276Z,7.47
2022-08-14T22:10:42.462Z,7.47
2022-08-14T22:13:12.215Z,7.15
2022-08-14T22:15:43.812Z,7.93
2022-08-14T22:18:20.371Z,7.53
2022-08-14T22:20:48.516Z,7.70
2022-08-14T22:23:21.592Z,7.83
2022-08-14T22:25:50.375Z,7.35
2022-08-14T22:28:21.483Z,7.68
2022-08-14T22:30:55.300Z,7.40
2022-08-14T22:33:31.031Z,7.13
2022-08-14T22:35:59.227Z,7.13
2022-08-14T22:38:36.779Z,7.32
2022-08-14T22:41:26.797Z,7.47
2022-08-14T22:43:57.576Z,7.80
2022-08-14T22:46:26.332Z,7.30
2022-08-14T22:48:53.754Z,7.40
2022-08-14T22:51:22.673Z,7.40
2022-08-14T22:53:52.411Z,7.93
2022-08-14T22:56:21.843Z,7.63
2022-08-14T22:58:53.878Z,7.32
2022-08-14T23:01:55.198Z,7.77
2022-08-14T23:04:34.812Z,7.72
2022-08-14T23:07:22.035Z,7.72
2022-08-14T23:10:32.168Z,7.65
2022-08-14T23:12:54.503Z,7.70
2022-08-14T23:15:23.626Z,7.80
2022-08-14T23:17:51.200Z,7.82
2022-08-14T23:20:21.807Z,7.97
2022-08-14T23:22:54.115Z,8.07
2022-08-14T23:25:56.945Z,7.97
2022-08-14T23:28:33.690Z,7.90
2022-08-14T23:31:05.560Z,7.82
2022-08-14T23:33:33.098Z,7.75
2022-08-14T23:36:00.026Z,7.55
2022-08-14T23:38:31.018Z,8.63
2022-08-14T23:41:02.373Z,8.10
2022-08-14T23:43:31.658Z,7.60
2022-08-14T23:45:59.066Z,7.60
2022-08-14T23:48:28.168Z,7.97
2022-08-14T23:50:55.849Z,8.25
2022-08-14T23:53:28.486Z,8.23
2022-08-14T23:56:16.078Z,7.75
2022-08-14T23:58:49.103Z,7.55
